sensor_id;sensor_type;location;lat;lon;timestamp;P1;durP1;ratioP1;P2;durP2;ratioP2
49296;SDS011;35163;48.878;18.040;2023-05-10T00:01:20;4.47;;;2.20;;
49296;SDS011;35163;48.878;18.040;2023-05-10T00:03:47;5.40;;;2.08;;
49296;SDS011;35163;48.878;18.040;2023-05-10T00:06:14;6.15;;;2.30;;
49296;SDS011;35163;48.878;18.040;2023-05-10T00:08:41;4.88;;;2.47;;
49296;SDS011;35163;48.878;18.040;2023-05-10T00:11:07;4.55;;;2.30;;
49296;SDS011;35163;48.878;18.040;2023-05-10T00:13:34;9.35;;;2.40;;
49296;SDS011;35163;48.878;18.040;2023-05-10T00:16:00;4.35;;;2.25;;
49296;SDS011;35163;48.878;18.040;2023-05-10T00:18:27;4.20;;;2.30;;
49296;SDS011;35163;48.878;18.040;2023-05-10T00:20:54;5.72;;;2.38;;
49296;SDS011;35163;48.878;18.040;2023-05-10T00:23:20;7.78;;;2.75;;
49296;SDS011;35163;48.878;18.040;2023-05-10T00:25:47;6.28;;;2.35;;
49296;SDS011;35163;48.878;18.040;2023-05-10T00:28:14;6.80;;;2.38;;
49296;SDS011;35163;48.878;18.040;2023-05-10T00:30:42;5.28;;;2.72;;
49296;SDS011;35163;48.878;18.040;2023-05-10T00:33:08;7.30;;;2.70;;
49296;SDS011;35163;48.878;18.040;2023-05-10T00:35:35;4.75;;;2.42;;
49296;SDS011;35163;48.878;18.040;2023-05-10T00:38:02;7.05;;;2.70;;
49296;SDS011;35163;48.878;18.040;2023-05-10T00:40:28;5.47;;;2.30;;
49296;SDS011;35163;48.878;18.040;2023-05-10T00:42:59;8.15;;;2.50;;
49296;SDS011;35163;48.878;18.040;2023-05-10T00:45:27;9.45;;;2.60;;
49296;SDS011;35163;48.878;18.040;2023-05-10T00:47:54;7.60;;;2.58;;
49296;SDS011;35163;48.878;18.040;2023-05-10T00:50:22;5.20;;;2.65;;
49296;SDS011;35163;48.878;18.040;2023-05-10T00:52:49;5.88;;;2.70;;
49296;SDS011;35163;48.878;18.040;2023-05-10T00:55:16;5.63;;;2.45;;
49296;SDS011;35163;48.878;18.040;2023-05-10T00:57:44;4.32;;;2.25;;
49296;SDS011;35163;48.878;18.040;2023-05-10T01:00:12;4.70;;;2.30;;
49296;SDS011;35163;48.878;18.040;2023-05-10T01:02:39;4.40;;;2.45;;
49296;SDS011;35163;48.878;18.040;2023-05-10T01:05:06;4.50;;;2.47;;
49296;SDS011;35163;48.878;18.040;2023-05-10T01:07:33;5.38;;;2.42;;
49296;SDS011;35163;48.878;18.040;2023-05-10T01:10:00;9.05;;;3.05;;
49296;SDS011;35163;48.878;18.040;2023-05-10T01:12:27;7.22;;;2.42;;
49296;SDS011;35163;48.878;18.040;2023-05-10T01:14:54;5.28;;;2.45;;
49296;SDS011;35163;48.878;18.040;2023-05-10T01:17:21;8.50;;;3.03;;
49296;SDS011;35163;48.878;18.040;2023-05-10T01:19:48;7.78;;;2.90;;
49296;SDS011;35163;48.878;18.040;2023-05-10T01:28:20;7.65;;;2.85;;
49296;SDS011;35163;48.878;18.040;2023-05-10T01:33:39;5.85;;;2.72;;
49296;SDS011;35163;48.878;18.040;2023-05-10T01:36:23;6.25;;;2.72;;
49296;SDS011;35163;48.878;18.040;2023-05-10T01:47:07;5.85;;;2.88;;
49296;SDS011;35163;48.878;18.040;2023-05-10T01:49:41;4.97;;;2.38;;
49296;SDS011;35163;48.878;18.040;2023-05-10T01:52:14;8.80;;;2.47;;
49296;SDS011;35163;48.878;18.040;2023-05-10T01:54:44;8.00;;;2.80;;
49296;SDS011;35163;48.878;18.040;2023-05-10T01:57:19;9.68;;;2.78;;
49296;SDS011;35163;48.878;18.040;2023-05-10T01:59:49;7.45;;;2.53;;
49296;SDS011;35163;48.878;18.040;2023-05-10T02:02:17;5.05;;;2.55;;
49296;SDS011;35163;48.878;18.040;2023-05-10T02:04:46;6.63;;;2.75;;
49296;SDS011;35163;48.878;18.040;2023-05-10T02:07:15;5.38;;;2.55;;
49296;SDS011;35163;48.878;18.040;2023-05-10T02:09:44;4.88;;;2.35;;
49296;SDS011;35163;48.878;18.040;2023-05-10T02:12:15;5.65;;;2.75;;
49296;SDS011;35163;48.878;18.040;2023-05-10T02:14:43;9.52;;;2.95;;
49296;SDS011;35163;48.878;18.040;2023-05-10T02:17:11;5.47;;;2.63;;
49296;SDS011;35163;48.878;18.040;2023-05-10T02:19:39;6.47;;;2.72;;
49296;SDS011;35163;48.878;18.040;2023-05-10T02:22:07;6.63;;;3.00;;
49296;SDS011;35163;48.878;18.040;2023-05-10T02:24:36;7.15;;;2.80;;
49296;SDS011;35163;48.878;18.040;2023-05-10T02:27:03;7.20;;;2.92;;
49296;SDS011;35163;48.878;18.040;2023-05-10T02:29:31;6.75;;;2.72;;
49296;SDS011;35163;48.878;18.040;2023-05-10T02:31:59;5.47;;;2.83;;
49296;SDS011;35163;48.878;18.040;2023-05-10T02:34:28;7.57;;;2.58;;
49296;SDS011;35163;48.878;18.040;2023-05-10T02:36:56;5.32;;;2.58;;
49296;SDS011;35163;48.878;18.040;2023-05-10T02:39:23;6.85;;;2.60;;
49296;SDS011;35163;48.878;18.040;2023-05-10T02:41:54;7.82;;;3.20;;
49296;SDS011;35163;48.878;18.040;2023-05-10T02:44:23;8.05;;;2.97;;
49296;SDS011;35163;48.878;18.040;2023-05-10T02:46:53;5.82;;;2.30;;
49296;SDS011;35163;48.878;18.040;2023-05-10T02:49:22;5.03;;;2.70;;
49296;SDS011;35163;48.878;18.040;2023-05-10T02:51:49;6.70;;;2.70;;
49296;SDS011;35163;48.878;18.040;2023-05-10T02:54:24;7.30;;;2.75;;
49296;SDS011;35163;48.878;18.040;2023-05-10T02:57:00;7.90;;;2.53;;
49296;SDS011;35163;48.878;18.040;2023-05-10T02:59:29;7.00;;;3.13;;
49296;SDS011;35163;48.878;18.040;2023-05-10T03:01:57;11.00;;;3.05;;
49296;SDS011;35163;48.878;18.040;2023-05-10T03:04:24;4.53;;;2.30;;
49296;SDS011;35163;48.878;18.040;2023-05-10T03:06:50;5.35;;;2.70;;
49296;SDS011;35163;48.878;18.040;2023-05-10T03:09:19;7.50;;;2.97;;
49296;SDS011;35163;48.878;18.040;2023-05-10T03:11:55;6.72;;;2.70;;
49296;SDS011;35163;48.878;18.040;2023-05-10T03:17:22;4.72;;;2.55;;
49296;SDS011;35163;48.878;18.040;2023-05-10T03:19:58;6.80;;;2.50;;
49296;SDS011;35163;48.878;18.040;2023-05-10T03:22:36;6.15;;;2.90;;
49296;SDS011;35163;48.878;18.040;2023-05-10T03:25:05;7.50;;;2.93;;
49296;SDS011;35163;48.878;18.040;2023-05-10T03:27:35;5.00;;;2.65;;
49296;SDS011;35163;48.878;18.040;2023-05-10T03:30:05;4.55;;;2.45;;
49296;SDS011;35163;48.878;18.040;2023-05-10T03:32:38;7.03;;;2.70;;
49296;SDS011;35163;48.878;18.040;2023-05-10T03:35:08;4.88;;;2.35;;
49296;SDS011;35163;48.878;18.040;2023-05-10T03:37:36;7.63;;;2.50;;
49296;SDS011;35163;48.878;18.040;2023-05-10T03:40:02;6.05;;;2.97;;
49296;SDS011;35163;48.878;18.040;2023-05-10T03:42:29;5.47;;;2.83;;
49296;SDS011;35163;48.878;18.040;2023-05-10T03:44:56;6.90;;;2.70;;
49296;SDS011;35163;48.878;18.040;2023-05-10T03:47:23;6.38;;;2.45;;
49296;SDS011;35163;48.878;18.040;2023-05-10T03:49:50;5.30;;;2.70;;
49296;SDS011;35163;48.878;18.040;2023-05-10T03:52:16;5.32;;;2.78;;
49296;SDS011;35163;48.878;18.040;2023-05-10T03:54:43;6.47;;;2.75;;
49296;SDS011;35163;48.878;18.040;2023-05-10T03:57:09;6.13;;;2.78;;
49296;SDS011;35163;48.878;18.040;2023-05-10T03:59:36;6.75;;;2.92;;
49296;SDS011;35163;48.878;18.040;2023-05-10T04:02:03;10.07;;;3.28;;
49296;SDS011;35163;48.878;18.040;2023-05-10T04:04:29;9.02;;;2.92;;
49296;SDS011;35163;48.878;18.040;2023-05-10T04:07:00;6.68;;;2.92;;
49296;SDS011;35163;48.878;18.040;2023-05-10T04:09:27;6.38;;;2.80;;
49296;SDS011;35163;48.878;18.040;2023-05-10T04:11:53;8.18;;;3.05;;
49296;SDS011;35163;48.878;18.040;2023-05-10T04:14:25;7.18;;;3.03;;
49296;SDS011;35163;48.878;18.040;2023-05-10T04:16:52;7.63;;;3.28;;
49296;SDS011;35163;48.878;18.040;2023-05-10T04:19:19;8.38;;;3.33;;
49296;SDS011;35163;48.878;18.040;2023-05-10T04:21:45;6.75;;;3.17;;
49296;SDS011;35163;48.878;18.040;2023-05-10T04:24:12;7.60;;;3.03;;
49296;SDS011;35163;48.878;18.040;2023-05-10T04:26:41;5.07;;;2.70;;
49296;SDS011;35163;48.878;18.040;2023-05-10T04:29:21;6.63;;;3.00;;
49296;SDS011;35163;48.878;18.040;2023-05-10T04:31:48;7.93;;;3.35;;
49296;SDS011;35163;48.878;18.040;2023-05-10T04:34:15;5.75;;;3.05;;
49296;SDS011;35163;48.878;18.040;2023-05-10T04:36:41;6.75;;;2.92;;
49296;SDS011;35163;48.878;18.040;2023-05-10T04:39:08;5.07;;;2.50;;
49296;SDS011;35163;48.878;18.040;2023-05-10T04:41:38;5.85;;;3.00;;
49296;SDS011;35163;48.878;18.040;2023-05-10T04:44:04;5.40;;;2.97;;
49296;SDS011;35163;48.878;18.040;2023-05-10T04:46:31;8.27;;;3.67;;
49296;SDS011;35163;48.878;18.040;2023-05-10T04:48:59;6.25;;;3.15;;
49296;SDS011;35163;48.878;18.040;2023-05-10T04:51:25;5.80;;;3.05;;
49296;SDS011;35163;48.878;18.040;2023-05-10T04:53:54;6.05;;;2.95;;
49296;SDS011;35163;48.878;18.040;2023-05-10T04:56:31;4.60;;;2.67;;
49296;SDS011;35163;48.878;18.040;2023-05-10T04:58:58;5.18;;;2.80;;
49296;SDS011;35163;48.878;18.040;2023-05-10T05:01:24;6.65;;;3.20;;
49296;SDS011;35163;48.878;18.040;2023-05-10T05:03:51;7.60;;;3.42;;
49296;SDS011;35163;48.878;18.040;2023-05-10T05:06:19;7.35;;;3.05;;
49296;SDS011;35163;48.878;18.040;2023-05-10T05:08:47;8.32;;;3.13;;
49296;SDS011;35163;48.878;18.040;2023-05-10T05:11:15;7.15;;;3.30;;
49296;SDS011;35163;48.878;18.040;2023-05-10T05:13:43;6.25;;;3.08;;
49296;SDS011;35163;48.878;18.040;2023-05-10T05:16:10;7.75;;;3.45;;
49296;SDS011;35163;48.878;18.040;2023-05-10T05:18:37;5.07;;;2.90;;
49296;SDS011;35163;48.878;18.040;2023-05-10T05:21:17;9.05;;;3.10;;
49296;SDS011;35163;48.878;18.040;2023-05-10T05:23:45;6.28;;;3.35;;
49296;SDS011;35163;48.878;18.040;2023-05-10T05:26:12;6.70;;;3.10;;
49296;SDS011;35163;48.878;18.040;2023-05-10T05:28:39;8.50;;;3.38;;
49296;SDS011;35163;48.878;18.040;2023-05-10T05:31:08;6.70;;;2.97;;
49296;SDS011;35163;48.878;18.040;2023-05-10T05:33:35;7.32;;;3.33;;
49296;SDS011;35163;48.878;18.040;2023-05-10T05:36:03;7.53;;;3.17;;
49296;SDS011;35163;48.878;18.040;2023-05-10T05:38:31;6.80;;;3.05;;
49296;SDS011;35163;48.878;18.040;2023-05-10T05:40:57;6.47;;;2.60;;
49296;SDS011;35163;48.878;18.040;2023-05-10T05:43:24;7.15;;;2.72;;
49296;SDS011;35163;48.878;18.040;2023-05-10T05:45:55;5.25;;;2.50;;
49296;SDS011;35163;48.878;18.040;2023-05-10T05:48:24;6.65;;;2.60;;
49296;SDS011;35163;48.878;18.040;2023-05-10T05:50:54;5.30;;;2.65;;
49296;SDS011;35163;48.878;18.040;2023-05-10T05:53:21;6.28;;;2.53;;
49296;SDS011;35163;48.878;18.040;2023-05-10T05:55:56;6.60;;;2.50;;
49296;SDS011;35163;48.878;18.040;2023-05-10T05:58:24;3.92;;;2.03;;
49296;SDS011;35163;48.878;18.040;2023-05-10T06:00:54;11.85;;;2.42;;
49296;SDS011;35163;48.878;18.040;2023-05-10T06:03:20;3.88;;;2.05;;
49296;SDS011;35163;48.878;18.040;2023-05-10T06:05:47;4.63;;;2.10;;
49296;SDS011;35163;48.878;18.040;2023-05-10T06:08:14;4.82;;;2.38;;
49296;SDS011;35163;48.878;18.040;2023-05-10T06:10:41;6.25;;;2.30;;
49296;SDS011;35163;48.878;18.040;2023-05-10T06:13:08;5.30;;;2.33;;
49296;SDS011;35163;48.878;18.040;2023-05-10T06:15:34;4.40;;;1.90;;
49296;SDS011;35163;48.878;18.040;2023-05-10T06:18:01;7.30;;;2.60;;
49296;SDS011;35163;48.878;18.040;2023-05-10T06:20:28;3.50;;;2.00;;
49296;SDS011;35163;48.878;18.040;2023-05-10T06:22:55;4.00;;;1.92;;
49296;SDS011;35163;48.878;18.040;2023-05-10T06:25:21;4.05;;;2.10;;
49296;SDS011;35163;48.878;18.040;2023-05-10T06:27:48;5.70;;;2.38;;
49296;SDS011;35163;48.878;18.040;2023-05-10T06:30:18;6.32;;;2.60;;
49296;SDS011;35163;48.878;18.040;2023-05-10T06:32:45;6.38;;;2.20;;
49296;SDS011;35163;48.878;18.040;2023-05-10T06:35:12;7.00;;;2.20;;
49296;SDS011;35163;48.878;18.040;2023-05-10T06:37:39;7.72;;;2.05;;
49296;SDS011;35163;48.878;18.040;2023-05-10T06:40:06;3.60;;;2.03;;
49296;SDS011;35163;48.878;18.040;2023-05-10T06:42:33;5.18;;;2.50;;
49296;SDS011;35163;48.878;18.040;2023-05-10T06:44:59;4.35;;;2.13;;
49296;SDS011;35163;48.878;18.040;2023-05-10T06:47:26;3.53;;;2.08;;
49296;SDS011;35163;48.878;18.040;2023-05-10T06:49:53;5.97;;;1.92;;
49296;SDS011;35163;48.878;18.040;2023-05-10T06:52:19;4.45;;;1.95;;
49296;SDS011;35163;48.878;18.040;2023-05-10T06:54:46;4.00;;;1.98;;
49296;SDS011;35163;48.878;18.040;2023-05-10T06:57:15;24.85;;;2.38;;
49296;SDS011;35163;48.878;18.040;2023-05-10T06:59:56;3.78;;;1.45;;
49296;SDS011;35163;48.878;18.040;2023-05-10T07:02:24;2.83;;;1.70;;
49296;SDS011;35163;48.878;18.040;2023-05-10T07:04:56;2.35;;;1.60;;
49296;SDS011;35163;48.878;18.040;2023-05-10T07:07:26;2.72;;;1.67;;
49296;SDS011;35163;48.878;18.040;2023-05-10T07:09:52;5.55;;;1.65;;
49296;SDS011;35163;48.878;18.040;2023-05-10T07:12:19;4.95;;;1.48;;
49296;SDS011;35163;48.878;18.040;2023-05-10T07:14:46;3.70;;;1.70;;
49296;SDS011;35163;48.878;18.040;2023-05-10T07:17:12;3.97;;;1.60;;
49296;SDS011;35163;48.878;18.040;2023-05-10T07:19:39;5.35;;;2.30;;
49296;SDS011;35163;48.878;18.040;2023-05-10T07:22:06;5.85;;;2.00;;
49296;SDS011;35163;48.878;18.040;2023-05-10T07:24:35;2.70;;;1.60;;
49296;SDS011;35163;48.878;18.040;2023-05-10T07:27:02;2.63;;;1.73;;
49296;SDS011;35163;48.878;18.040;2023-05-10T07:29:29;3.70;;;1.55;;
49296;SDS011;35163;48.878;18.040;2023-05-10T07:31:56;2.05;;;1.35;;
49296;SDS011;35163;48.878;18.040;2023-05-10T07:34:24;2.03;;;1.40;;
49296;SDS011;35163;48.878;18.040;2023-05-10T07:36:51;6.32;;;2.00;;
49296;SDS011;35163;48.878;18.040;2023-05-10T07:39:21;6.43;;;1.80;;
49296;SDS011;35163;48.878;18.040;2023-05-10T07:41:53;4.93;;;1.70;;
49296;SDS011;35163;48.878;18.040;2023-05-10T07:44:24;8.63;;;2.55;;
49296;SDS011;35163;48.878;18.040;2023-05-10T07:46:50;5.97;;;1.70;;
49296;SDS011;35163;48.878;18.040;2023-05-10T07:49:17;5.65;;;1.90;;
49296;SDS011;35163;48.878;18.040;2023-05-10T07:51:51;5.95;;;2.17;;
49296;SDS011;35163;48.878;18.040;2023-05-10T07:54:20;7.72;;;2.03;;
49296;SDS011;35163;48.878;18.040;2023-05-10T07:56:46;3.67;;;1.73;;
49296;SDS011;35163;48.878;18.040;2023-05-10T07:59:16;9.55;;;1.90;;
49296;SDS011;35163;48.878;18.040;2023-05-10T08:01:44;4.20;;;1.92;;
49296;SDS011;35163;48.878;18.040;2023-05-10T08:04:11;2.67;;;1.40;;
49296;SDS011;35163;48.878;18.040;2023-05-10T08:06:38;3.30;;;1.65;;
49296;SDS011;35163;48.878;18.040;2023-05-10T08:09:05;3.03;;;1.50;;
49296;SDS011;35163;48.878;18.040;2023-05-10T08:11:32;7.57;;;1.90;;
49296;SDS011;35163;48.878;18.040;2023-05-10T08:14:00;5.15;;;1.80;;
49296;SDS011;35163;48.878;18.040;2023-05-10T08:16:27;7.88;;;3.28;;
49296;SDS011;35163;48.878;18.040;2023-05-10T08:18:54;2.40;;;1.30;;
49296;SDS011;35163;48.878;18.040;2023-05-10T08:21:21;3.90;;;1.40;;
49296;SDS011;35163;48.878;18.040;2023-05-10T08:23:48;3.70;;;1.52;;
49296;SDS011;35163;48.878;18.040;2023-05-10T08:26:15;4.60;;;1.48;;
49296;SDS011;35163;48.878;18.040;2023-05-10T08:28:41;6.80;;;1.63;;
49296;SDS011;35163;48.878;18.040;2023-05-10T08:31:08;5.10;;;1.73;;
49296;SDS011;35163;48.878;18.040;2023-05-10T08:33:35;4.63;;;1.75;;
49296;SDS011;35163;48.878;18.040;2023-05-10T08:36:01;6.10;;;2.00;;
49296;SDS011;35163;48.878;18.040;2023-05-10T08:38:28;7.90;;;1.98;;
49296;SDS011;35163;48.878;18.040;2023-05-10T08:40:55;3.47;;;1.45;;
49296;SDS011;35163;48.878;18.040;2023-05-10T08:43:28;5.50;;;1.83;;
49296;SDS011;35163;48.878;18.040;2023-05-10T08:45:56;3.80;;;1.95;;
49296;SDS011;35163;48.878;18.040;2023-05-10T08:48:32;5.50;;;1.90;;
49296;SDS011;35163;48.878;18.040;2023-05-10T08:51:01;2.38;;;1.67;;
49296;SDS011;35163;48.878;18.040;2023-05-10T08:53:30;4.20;;;1.63;;
49296;SDS011;35163;48.878;18.040;2023-05-10T08:56:00;1.80;;;1.42;;
49296;SDS011;35163;48.878;18.040;2023-05-10T08:58:31;3.88;;;1.70;;
49296;SDS011;35163;48.878;18.040;2023-05-10T09:00:58;4.93;;;1.75;;
49296;SDS011;35163;48.878;18.040;2023-05-10T09:03:25;5.38;;;1.58;;
49296;SDS011;35163;48.878;18.040;2023-05-10T09:05:55;3.58;;;1.90;;
49296;SDS011;35163;48.878;18.040;2023-05-10T09:08:23;3.42;;;1.70;;
49296;SDS011;35163;48.878;18.040;2023-05-10T09:10:56;2.78;;;1.42;;
49296;SDS011;35163;48.878;18.040;2023-05-10T09:13:25;4.78;;;2.00;;
49296;SDS011;35163;48.878;18.040;2023-05-10T09:15:52;5.38;;;1.60;;
49296;SDS011;35163;48.878;18.040;2023-05-10T09:18:19;3.20;;;1.58;;
49296;SDS011;35163;48.878;18.040;2023-05-10T09:20:46;3.05;;;1.50;;
49296;SDS011;35163;48.878;18.040;2023-05-10T09:23:13;2.33;;;1.55;;
49296;SDS011;35163;48.878;18.040;2023-05-10T09:25:42;2.95;;;1.60;;
49296;SDS011;35163;48.878;18.040;2023-05-10T09:28:09;4.22;;;1.60;;
49296;SDS011;35163;48.878;18.040;2023-05-10T09:30:37;4.95;;;1.60;;
49296;SDS011;35163;48.878;18.040;2023-05-10T09:33:03;11.55;;;1.80;;
49296;SDS011;35163;48.878;18.040;2023-05-10T09:35:31;4.60;;;1.70;;
49296;SDS011;35163;48.878;18.040;2023-05-10T09:38:07;3.67;;;1.75;;
49296;SDS011;35163;48.878;18.040;2023-05-10T09:40:36;6.60;;;1.77;;
49296;SDS011;35163;48.878;18.040;2023-05-10T09:43:06;3.03;;;1.52;;
49296;SDS011;35163;48.878;18.040;2023-05-10T09:45:34;5.10;;;1.90;;
49296;SDS011;35163;48.878;18.040;2023-05-10T09:48:04;4.18;;;1.83;;
49296;SDS011;35163;48.878;18.040;2023-05-10T09:50:32;2.20;;;1.50;;
49296;SDS011;35163;48.878;18.040;2023-05-10T09:53:01;5.90;;;1.70;;
49296;SDS011;35163;48.878;18.040;2023-05-10T09:58:02;7.68;;;2.95;;
49296;SDS011;35163;48.878;18.040;2023-05-10T10:00:34;7.93;;;2.17;;
49296;SDS011;35163;48.878;18.040;2023-05-10T10:03:04;6.40;;;2.13;;
49296;SDS011;35163;48.878;18.040;2023-05-10T10:05:32;5.63;;;1.80;;
49296;SDS011;35163;48.878;18.040;2023-05-10T10:08:04;4.07;;;1.70;;
49296;SDS011;35163;48.878;18.040;2023-05-10T10:10:32;4.50;;;1.60;;
49296;SDS011;35163;48.878;18.040;2023-05-10T10:13:04;5.75;;;1.60;;
49296;SDS011;35163;48.878;18.040;2023-05-10T10:15:32;3.90;;;1.40;;
49296;SDS011;35163;48.878;18.040;2023-05-10T10:18:00;3.85;;;1.90;;
49296;SDS011;35163;48.878;18.040;2023-05-10T10:20:27;5.63;;;1.98;;
49296;SDS011;35163;48.878;18.040;2023-05-10T10:22:54;3.78;;;1.60;;
49296;SDS011;35163;48.878;18.040;2023-05-10T10:25:21;7.55;;;1.65;;
49296;SDS011;35163;48.878;18.040;2023-05-10T10:30:25;5.50;;;1.80;;
49296;SDS011;35163;48.878;18.040;2023-05-10T10:36:17;4.85;;;1.70;;
49296;SDS011;35163;48.878;18.040;2023-05-10T10:52:27;3.75;;;1.67;;
49296;SDS011;35163;48.878;18.040;2023-05-10T10:55:06;10.55;;;1.77;;
49296;SDS011;35163;48.878;18.040;2023-05-10T11:10:37;5.70;;;1.70;;
49296;SDS011;35163;48.878;18.040;2023-05-10T11:13:08;4.93;;;2.13;;
49296;SDS011;35163;48.878;18.040;2023-05-10T11:15:38;4.18;;;1.83;;
49296;SDS011;35163;48.878;18.040;2023-05-10T11:18:18;6.25;;;2.13;;
49296;SDS011;35163;48.878;18.040;2023-05-10T11:20:58;4.05;;;1.83;;
49296;SDS011;35163;48.878;18.040;2023-05-10T11:24:09;5.97;;;2.42;;
49296;SDS011;35163;48.878;18.040;2023-05-10T11:26:35;4.68;;;1.95;;
49296;SDS011;35163;48.878;18.040;2023-05-10T11:29:01;2.25;;;1.48;;
49296;SDS011;35163;48.878;18.040;2023-05-10T11:31:30;4.63;;;1.70;;
49296;SDS011;35163;48.878;18.040;2023-05-10T11:33:58;3.20;;;1.70;;
49296;SDS011;35163;48.878;18.040;2023-05-10T11:36:26;7.03;;;2.03;;
49296;SDS011;35163;48.878;18.040;2023-05-10T11:38:55;2.28;;;1.50;;
49296;SDS011;35163;48.878;18.040;2023-05-10T11:41:26;3.42;;;1.70;;
49296;SDS011;35163;48.878;18.040;2023-05-10T11:43:58;3.38;;;1.98;;
49296;SDS011;35163;48.878;18.040;2023-05-10T11:46:26;4.97;;;1.88;;
49296;SDS011;35163;48.878;18.040;2023-05-10T11:48:57;3.22;;;1.83;;
49296;SDS011;35163;48.878;18.040;2023-05-10T11:51:28;3.20;;;1.70;;
49296;SDS011;35163;48.878;18.040;2023-05-10T11:54:10;2.58;;;1.50;;
49296;SDS011;35163;48.878;18.040;2023-05-10T11:56:38;3.42;;;1.80;;
49296;SDS011;35163;48.878;18.040;2023-05-10T11:59:06;3.70;;;1.58;;
49296;SDS011;35163;48.878;18.040;2023-05-10T12:01:34;4.53;;;1.85;;
49296;SDS011;35163;48.878;18.040;2023-05-10T12:04:02;4.80;;;1.63;;
49296;SDS011;35163;48.878;18.040;2023-05-10T12:06:30;3.20;;;1.80;;
49296;SDS011;35163;48.878;18.040;2023-05-10T12:08:58;4.95;;;1.90;;
49296;SDS011;35163;48.878;18.040;2023-05-10T12:11:26;11.07;;;1.90;;
49296;SDS011;35163;48.878;18.040;2023-05-10T12:13:57;4.40;;;1.58;;
49296;SDS011;35163;48.878;18.040;2023-05-10T12:16:24;3.30;;;1.70;;
49296;SDS011;35163;48.878;18.040;2023-05-10T12:19:00;8.40;;;1.73;;
49296;SDS011;35163;48.878;18.040;2023-05-10T12:21:29;2.78;;;1.50;;
49296;SDS011;35163;48.878;18.040;2023-05-10T12:24:03;2.30;;;1.50;;
49296;SDS011;35163;48.878;18.040;2023-05-10T12:26:31;6.10;;;2.00;;
49296;SDS011;35163;48.878;18.040;2023-05-10T12:29:16;2.42;;;1.50;;
49296;SDS011;35163;48.878;18.040;2023-05-10T12:34:23;2.97;;;1.58;;
49296;SDS011;35163;48.878;18.040;2023-05-10T12:36:53;5.13;;;1.77;;
49296;SDS011;35163;48.878;18.040;2023-05-10T12:39:23;6.65;;;2.05;;
49296;SDS011;35163;48.878;18.040;2023-05-10T12:41:51;2.95;;;1.50;;
49296;SDS011;35163;48.878;18.040;2023-05-10T12:44:18;6.80;;;2.25;;
49296;SDS011;35163;48.878;18.040;2023-05-10T12:46:47;2.50;;;1.58;;
49296;SDS011;35163;48.878;18.040;2023-05-10T12:49:17;3.45;;;1.80;;
49296;SDS011;35163;48.878;18.040;2023-05-10T12:51:48;8.80;;;1.50;;
49296;SDS011;35163;48.878;18.040;2023-05-10T12:54:15;5.55;;;1.73;;
49296;SDS011;35163;48.878;18.040;2023-05-10T12:56:41;6.97;;;1.73;;
49296;SDS011;35163;48.878;18.040;2023-05-10T12:59:08;3.80;;;2.03;;
49296;SDS011;35163;48.878;18.040;2023-05-10T13:01:37;3.17;;;1.52;;
49296;SDS011;35163;48.878;18.040;2023-05-10T13:04:03;4.35;;;1.75;;
49296;SDS011;35163;48.878;18.040;2023-05-10T13:06:39;4.05;;;1.70;;
49296;SDS011;35163;48.878;18.040;2023-05-10T13:09:05;3.67;;;1.55;;
49296;SDS011;35163;48.878;18.040;2023-05-10T13:11:33;4.88;;;2.60;;
49296;SDS011;35163;48.878;18.040;2023-05-10T13:14:00;6.05;;;1.75;;
49296;SDS011;35163;48.878;18.040;2023-05-10T13:16:26;4.25;;;1.83;;
49296;SDS011;35163;48.878;18.040;2023-05-10T13:18:53;3.30;;;1.83;;
49296;SDS011;35163;48.878;18.040;2023-05-10T13:21:22;5.32;;;1.98;;
49296;SDS011;35163;48.878;18.040;2023-05-10T13:23:50;4.55;;;1.80;;
49296;SDS011;35163;48.878;18.040;2023-05-10T13:26:17;4.93;;;1.98;;
49296;SDS011;35163;48.878;18.040;2023-05-10T13:28:45;4.55;;;1.90;;
49296;SDS011;35163;48.878;18.040;2023-05-10T13:31:12;3.33;;;1.60;;
49296;SDS011;35163;48.878;18.040;2023-05-10T13:33:38;3.95;;;1.95;;
49296;SDS011;35163;48.878;18.040;2023-05-10T13:36:06;2.53;;;1.60;;
49296;SDS011;35163;48.878;18.040;2023-05-10T13:38:32;2.88;;;1.60;;
49296;SDS011;35163;48.878;18.040;2023-05-10T13:41:01;2.25;;;1.55;;
49296;SDS011;35163;48.878;18.040;2023-05-10T13:43:31;3.28;;;1.65;;
49296;SDS011;35163;48.878;18.040;2023-05-10T13:45:57;5.13;;;1.65;;
49296;SDS011;35163;48.878;18.040;2023-05-10T13:48:24;3.10;;;1.30;;
49296;SDS011;35163;48.878;18.040;2023-05-10T13:50:51;4.15;;;1.45;;
49296;SDS011;35163;48.878;18.040;2023-05-10T13:53:17;3.22;;;1.67;;
49296;SDS011;35163;48.878;18.040;2023-05-10T13:55:47;2.30;;;1.40;;
49296;SDS011;35163;48.878;18.040;2023-05-10T13:58:15;3.22;;;1.25;;
49296;SDS011;35163;48.878;18.040;2023-05-10T14:00:45;2.97;;;1.50;;
49296;SDS011;35163;48.878;18.040;2023-05-10T14:03:14;3.30;;;1.70;;
49296;SDS011;35163;48.878;18.040;2023-05-10T14:05:41;7.75;;;3.40;;
49296;SDS011;35163;48.878;18.040;2023-05-10T14:08:08;3.53;;;2.00;;
49296;SDS011;35163;48.878;18.040;2023-05-10T14:10:36;5.03;;;2.10;;
49296;SDS011;35163;48.878;18.040;2023-05-10T14:13:03;3.15;;;1.48;;
49296;SDS011;35163;48.878;18.040;2023-05-10T14:15:32;3.92;;;1.73;;
49296;SDS011;35163;48.878;18.040;2023-05-10T14:17:59;6.03;;;1.70;;
49296;SDS011;35163;48.878;18.040;2023-05-10T14:20:28;3.47;;;1.48;;
49296;SDS011;35163;48.878;18.040;2023-05-10T14:22:57;4.13;;;1.70;;
49296;SDS011;35163;48.878;18.040;2023-05-10T14:25:26;3.63;;;2.00;;
49296;SDS011;35163;48.878;18.040;2023-05-10T14:27:53;3.33;;;1.38;;
49296;SDS011;35163;48.878;18.040;2023-05-10T14:30:20;3.97;;;1.70;;
49296;SDS011;35163;48.878;18.040;2023-05-10T14:32:47;3.63;;;1.70;;
49296;SDS011;35163;48.878;18.040;2023-05-10T14:35:14;3.05;;;1.30;;
49296;SDS011;35163;48.878;18.040;2023-05-10T14:37:45;3.78;;;1.55;;
49296;SDS011;35163;48.878;18.040;2023-05-10T14:40:13;3.63;;;2.17;;
49296;SDS011;35163;48.878;18.040;2023-05-10T14:42:41;3.75;;;1.70;;
49296;SDS011;35163;48.878;18.040;2023-05-10T14:45:09;2.95;;;1.55;;
49296;SDS011;35163;48.878;18.040;2023-05-10T14:47:39;2.88;;;1.70;;
49296;SDS011;35163;48.878;18.040;2023-05-10T14:50:06;2.83;;;1.40;;
49296;SDS011;35163;48.878;18.040;2023-05-10T14:52:33;10.75;;;2.05;;
49296;SDS011;35163;48.878;18.040;2023-05-10T14:54:59;3.35;;;1.70;;
49296;SDS011;35163;48.878;18.040;2023-05-10T14:57:27;4.15;;;1.60;;
49296;SDS011;35163;48.878;18.040;2023-05-10T14:59:55;8.88;;;1.70;;
49296;SDS011;35163;48.878;18.040;2023-05-10T15:02:23;5.00;;;1.80;;
49296;SDS011;35163;48.878;18.040;2023-05-10T15:04:50;3.78;;;1.50;;
49296;SDS011;35163;48.878;18.040;2023-05-10T15:07:20;4.80;;;1.33;;
49296;SDS011;35163;48.878;18.040;2023-05-10T15:09:47;2.60;;;1.52;;
49296;SDS011;35163;48.878;18.040;2023-05-10T15:12:13;7.88;;;1.60;;
49296;SDS011;35163;48.878;18.040;2023-05-10T15:14:40;3.17;;;1.38;;
49296;SDS011;35163;48.878;18.040;2023-05-10T15:17:06;5.57;;;1.80;;
49296;SDS011;35163;48.878;18.040;2023-05-10T15:19:33;4.68;;;2.00;;
49296;SDS011;35163;48.878;18.040;2023-05-10T15:22:00;2.65;;;1.50;;
49296;SDS011;35163;48.878;18.040;2023-05-10T15:24:27;11.23;;;2.08;;
49296;SDS011;35163;48.878;18.040;2023-05-10T15:26:56;4.10;;;2.00;;
49296;SDS011;35163;48.878;18.040;2023-05-10T15:29:22;2.30;;;1.40;;
49296;SDS011;35163;48.878;18.040;2023-05-10T15:31:49;4.13;;;1.77;;
49296;SDS011;35163;48.878;18.040;2023-05-10T15:34:17;2.83;;;1.58;;
49296;SDS011;35163;48.878;18.040;2023-05-10T15:36:46;4.00;;;1.75;;
49296;SDS011;35163;48.878;18.040;2023-05-10T15:39:13;3.67;;;1.92;;